Time;durP1;ratioP1;P1;durP2;ratioP2;P2;SDS_P1;SDS_P2;PMS_P1;PMS_P2;Temp;Humidity;BMP_temperature;BMP_pressure;BME280_temperature;BME280_humidity;BME280_pressure;Samples;Min_cycle;Max_cycle;Signal;HPM_P1;HPM_P2
2023/01/30 00:01:53;;;;;;;3.80;3.00;;;;;;;;;;4973870;28;20022;-71
2023/01/30 00:04:20;;;;;;;7.70;2.95;;;;;;;;;;4982158;28;20041;-71
2023/01/30 00:06:46;;;;;;;3.78;3.03;;;;;;;;;;4985928;28;20140;-71
2023/01/30 00:09:16;;;;;;;3.58;2.95;;;;;;;;;;4984683;28;20034;-71
2023/01/30 00:11:42;;;;;;;4.35;3.00;;;;;;;;;;4984862;28;20493;-71
2023/01/30 00:14:08;;;;;;;4.68;2.83;;;;;;;;;;4982896;28;20659;-71
2023/01/30 00:16:34;;;;;;;3.83;2.95;;;;;;;;;;4985960;28;20509;-71
2023/01/30 00:19:00;;;;;;;4.65;3.13;;;;;;;;;;4982697;28;20855;-71
2023/01/30 00:21:27;;;;;;;5.20;3.30;;;;;;;;;;4982820;28;20482;-71
2023/01/30 00:23:53;;;;;;;4.57;3.13;;;;;;;;;;4980687;28;20043;-72
2023/01/30 00:26:19;;;;;;;5.32;3.13;;;;;;;;;;4981885;28;20026;-71
2023/01/30 00:28:45;;;;;;;5.85;3.25;;;;;;;;;;4982492;28;20038;-71
2023/01/30 00:31:11;;;;;;;4.28;3.38;;;;;;;;;;4983516;28;20038;-71
2023/01/30 00:33:38;;;;;;;5.90;3.45;;;;;;;;;;4984704;28;20044;-73
2023/01/30 00:36:05;;;;;;;4.65;2.95;;;;;;;;;;4984673;28;20879;-71
2023/01/30 00:38:31;;;;;;;4.63;3.20;;;;;;;;;;4983744;28;20030;-70
2023/01/30 00:40:57;;;;;;;3.90;3.20;;;;;;;;;;4983635;28;20037;-71
2023/01/30 00:49:17;;;;;;;5.03;3.35;;;;;;;;;;4970327;28;20034;-69
2023/01/30 00:51:43;;;;;;;4.80;3.53;;;;;;;;;;4987244;28;20542;-71
2023/01/30 00:54:09;;;;;;;4.38;3.70;;;;;;;;;;4983623;28;20121;-70
2023/01/30 00:56:35;;;;;;;4.47;3.35;;;;;;;;;;4984101;28;20049;-69
2023/01/30 00:59:01;;;;;;;3.97;3.08;;;;;;;;;;4986644;28;20062;-70
2023/01/30 01:01:27;;;;;;;5.13;3.60;;;;;;;;;;4985657;28;20050;-72
2023/01/30 01:03:54;;;;;;;4.13;3.25;;;;;;;;;;4987049;28;20072;-69
2023/01/30 01:06:20;;;;;;;6.13;3.70;;;;;;;;;;4985192;28;20104;-69
2023/01/30 01:08:46;;;;;;;6.22;3.40;;;;;;;;;;4984888;28;20430;-70
2023/01/30 01:11:23;;;;;;;4.10;3.58;;;;;;;;;;4987770;28;20030;-70
2023/01/30 01:13:49;;;;;;;8.95;3.42;;;;;;;;;;4985461;28;20181;-69
2023/01/30 01:16:15;;;;;;;4.75;3.42;;;;;;;;;;4979395;28;20041;-69
2023/01/30 01:18:41;;;;;;;5.70;3.92;;;;;;;;;;4984370;28;20037;-70
2023/01/30 01:21:07;;;;;;;6.07;4.50;;;;;;;;;;4982039;28;20022;-71
2023/01/30 01:23:33;;;;;;;4.20;3.80;;;;;;;;;;4982520;28;20031;-72
2023/01/30 01:26:03;;;;;;;5.90;3.72;;;;;;;;;;4979551;28;20022;-70
2023/01/30 01:28:29;;;;;;;4.95;3.88;;;;;;;;;;4985496;28;20062;-69
2023/01/30 01:30:56;;;;;;;5.63;3.97;;;;;;;;;;4984941;28;20023;-70
2023/01/30 01:33:26;;;;;;;4.88;3.88;;;;;;;;;;4980042;28;20034;-70
2023/01/30 01:35:55;;;;;;;6.35;3.53;;;;;;;;;;4983858;28;20015;-70
2023/01/30 01:38:21;;;;;;;4.63;3.88;;;;;;;;;;4981158;28;20035;-70
2023/01/30 01:41:04;;;;;;;5.45;3.80;;;;;;;;;;4986171;28;20034;-70
2023/01/30 01:43:35;;;;;;;5.43;4.15;;;;;;;;;;4981868;28;20058;-69
2023/01/30 01:46:01;;;;;;;4.72;3.42;;;;;;;;;;4981313;28;20026;-70
2023/01/30 01:48:30;;;;;;;6.47;4.53;;;;;;;;;;4981076;28;20023;-70
2023/01/30 01:50:58;;;;;;;6.70;3.90;;;;;;;;;;4979146;28;20026;-70
2023/01/30 01:53:28;;;;;;;5.70;4.40;;;;;;;;;;4987699;28;20050;-70
2023/01/30 01:55:56;;;;;;;5.00;3.50;;;;;;;;;;4981832;28;20183;-70
2023/01/30 01:58:22;;;;;;;5.10;3.92;;;;;;;;;;4980346;28;20034;-70
2023/01/30 02:00:48;;;;;;;5.80;3.88;;;;;;;;;;4983012;28;20030;-70
2023/01/30 02:03:16;;;;;;;4.78;3.72;;;;;;;;;;4980642;28;20050;-70
2023/01/30 02:05:45;;;;;;;4.65;3.75;;;;;;;;;;4983079;28;20051;-70
2023/01/30 02:08:13;;;;;;;5.68;3.83;;;;;;;;;;4984454;28;20398;-69
2023/01/30 02:10:58;;;;;;;5.25;3.97;;;;;;;;;;4982309;28;20027;-70
2023/01/30 02:13:25;;;;;;;5.05;3.72;;;;;;;;;;4984310;28;20070;-70
2023/01/30 02:15:51;;;;;;;4.47;3.63;;;;;;;;;;4982824;28;21245;-69
2023/01/30 02:18:18;;;;;;;4.70;3.47;;;;;;;;;;4977714;28;20554;-70
2023/01/30 02:20:47;;;;;;;6.13;3.78;;;;;;;;;;4978585;28;20038;-70
2023/01/30 02:23:19;;;;;;;5.75;4.78;;;;;;;;;;4981350;28;20068;-70
2023/01/30 02:25:48;;;;;;;5.85;4.15;;;;;;;;;;4983034;28;20033;-70
2023/01/30 02:28:33;;;;;;;5.57;4.25;;;;;;;;;;4977573;28;20034;-70
2023/01/30 02:30:59;;;;;;;6.68;4.13;;;;;;;;;;4984442;28;20076;-70
2023/01/30 02:33:35;;;;;;;6.35;4.22;;;;;;;;;;4977123;28;20082;-70
2023/01/30 02:36:01;;;;;;;6.30;4.60;;;;;;;;;;4979448;28;20037;-69
2023/01/30 02:38:33;;;;;;;6.85;5.10;;;;;;;;;;4983325;28;20026;-71
2023/01/30 02:41:11;;;;;;;6.10;4.82;;;;;;;;;;4982206;28;20487;-70
2023/01/30 02:43:56;;;;;;;7.72;4.70;;;;;;;;;;4977924;28;20065;-70
2023/01/30 02:46:45;;;;;;;7.57;4.80;;;;;;;;;;4976206;28;20022;-70
2023/01/30 02:49:18;;;;;;;5.05;4.25;;;;;;;;;;4983065;28;20034;-70
2023/01/30 02:51:46;;;;;;;5.60;4.68;;;;;;;;;;4980584;28;20202;-70
2023/01/30 02:54:12;;;;;;;7.63;4.25;;;;;;;;;;4983827;28;20030;-70
2023/01/30 02:56:51;;;;;;;6.63;4.63;;;;;;;;;;4982532;28;20026;-70
2023/01/30 02:59:19;;;;;;;7.50;4.50;;;;;;;;;;4980006;28;20026;-70
2023/01/30 03:02:04;;;;;;;7.15;4.80;;;;;;;;;;4981982;28;20039;-71
2023/01/30 03:04:39;;;;;;;5.88;4.30;;;;;;;;;;4979352;28;20415;-71
2023/01/30 03:07:16;;;;;;;6.40;4.78;;;;;;;;;;4980430;28;20117;-70
2023/01/30 03:10:04;;;;;;;6.55;4.45;;;;;;;;;;4979583;28;20031;-73
2023/01/30 03:12:30;;;;;;;6.57;4.70;;;;;;;;;;4981917;28;20108;-72
2023/01/30 03:15:03;;;;;;;7.68;4.30;;;;;;;;;;4978539;28;20084;-70
2023/01/30 03:17:30;;;;;;;7.15;4.35;;;;;;;;;;4981764;28;20531;-71
2023/01/30 03:19:56;;;;;;;4.97;4.47;;;;;;;;;;4979152;28;20127;-70
2023/01/30 03:22:22;;;;;;;5.45;4.32;;;;;;;;;;4976126;28;20494;-70
2023/01/30 03:24:49;;;;;;;9.07;4.30;;;;;;;;;;4979845;28;20109;-70
2023/01/30 03:27:16;;;;;;;5.72;4.00;;;;;;;;;;4982858;28;20018;-70
2023/01/30 03:29:42;;;;;;;4.95;3.95;;;;;;;;;;4980964;28;20023;-70
2023/01/30 03:32:08;;;;;;;6.07;4.15;;;;;;;;;;4980751;28;20035;-71
2023/01/30 03:34:34;;;;;;;6.82;4.15;;;;;;;;;;4976374;28;20022;-71
2023/01/30 03:37:00;;;;;;;5.80;3.92;;;;;;;;;;4979484;28;20026;-72
2023/01/30 03:39:26;;;;;;;4.45;3.83;;;;;;;;;;4980046;28;20030;-71
2023/01/30 03:41:53;;;;;;;7.20;3.75;;;;;;;;;;4977302;28;20030;-70
2023/01/30 03:44:19;;;;;;;6.57;4.20;;;;;;;;;;4979997;28;20088;-70
2023/01/30 03:46:45;;;;;;;14.05;6.85;;;;;;;;;;4977138;28;20032;-71
2023/01/30 03:49:12;;;;;;;27.58;14.52;;;;;;;;;;4974306;28;20676;-70
2023/01/30 03:51:38;;;;;;;5.70;4.25;;;;;;;;;;4975224;28;20023;-72
2023/01/30 03:54:04;;;;;;;6.53;4.78;;;;;;;;;;4979426;28;20030;-70
2023/01/30 03:56:30;;;;;;;6.88;4.35;;;;;;;;;;4973056;28;20033;-70
2023/01/30 03:58:57;;;;;;;6.47;4.45;;;;;;;;;;4974417;28;20061;-71
2023/01/30 04:01:23;;;;;;;7.93;4.40;;;;;;;;;;4975221;28;20026;-70
2023/01/30 04:03:49;;;;;;;11.10;6.53;;;;;;;;;;4975605;28;20192;-72
2023/01/30 04:06:15;;;;;;;17.98;10.50;;;;;;;;;;4975049;28;20112;-72
2023/01/30 04:08:41;;;;;;;5.97;4.97;;;;;;;;;;4973965;28;20039;-70
2023/01/30 04:11:07;;;;;;;6.05;4.55;;;;;;;;;;4973671;28;20027;-70
2023/01/30 04:13:33;;;;;;;7.72;4.20;;;;;;;;;;4978472;28;20650;-70
2023/01/30 04:16:18;;;;;;;6.78;4.55;;;;;;;;;;4973747;28;20026;-71
2023/01/30 04:18:45;;;;;;;4.68;3.92;;;;;;;;;;4971686;28;20104;-71
2023/01/30 04:21:12;;;;;;;5.82;3.80;;;;;;;;;;4972291;28;20034;-71
2023/01/30 04:23:38;;;;;;;7.78;4.75;;;;;;;;;;4968658;28;20042;-71
2023/01/30 04:26:05;;;;;;;21.35;7.07;;;;;;;;;;4974835;28;20074;-72
2023/01/30 04:28:31;;;;;;;7.35;4.60;;;;;;;;;;4971033;28;20034;-71
2023/01/30 04:30:57;;;;;;;10.10;6.15;;;;;;;;;;4974384;28;20026;-71
2023/01/30 04:33:24;;;;;;;5.90;4.47;;;;;;;;;;4977092;28;20076;-71
2023/01/30 04:35:57;;;;;;;6.50;4.15;;;;;;;;;;4977571;28;20652;-71
2023/01/30 04:38:23;;;;;;;10.32;4.72;;;;;;;;;;4981881;28;20023;-73
2023/01/30 04:40:50;;;;;;;5.80;4.45;;;;;;;;;;4974287;28;20469;-71
2023/01/30 04:43:17;;;;;;;5.43;4.47;;;;;;;;;;4978621;28;20125;-71
2023/01/30 04:45:46;;;;;;;5.43;4.25;;;;;;;;;;4976271;28;20038;-71
2023/01/30 04:48:12;;;;;;;7.97;4.63;;;;;;;;;;4979443;28;20386;-70
2023/01/30 04:50:39;;;;;;;9.77;5.18;;;;;;;;;;4977595;28;20383;-71
2023/01/30 04:53:05;;;;;;;9.80;4.90;;;;;;;;;;4977868;28;20034;-71
2023/01/30 04:55:31;;;;;;;16.38;8.82;;;;;;;;;;4979663;28;20023;-70
2023/01/30 04:57:57;;;;;;;15.75;9.30;;;;;;;;;;4975335;28;20365;-70
2023/01/30 05:00:24;;;;;;;6.28;4.55;;;;;;;;;;4982195;28;20026;-70
2023/01/30 05:02:50;;;;;;;5.55;4.10;;;;;;;;;;4979693;28;20053;-70
2023/01/30 05:05:17;;;;;;;6.63;4.65;;;;;;;;;;4974887;28;20178;-71
2023/01/30 05:07:43;;;;;;;5.55;4.50;;;;;;;;;;4974579;28;20054;-71
2023/01/30 05:10:10;;;;;;;8.75;4.93;;;;;;;;;;4978191;28;20022;-70
2023/01/30 05:12:36;;;;;;;6.97;4.78;;;;;;;;;;4977825;28;20039;-70
2023/01/30 05:15:02;;;;;;;9.55;4.70;;;;;;;;;;4980648;28;20073;-70
2023/01/30 05:17:28;;;;;;;6.53;4.30;;;;;;;;;;4979154;28;20030;-70
2023/01/30 05:19:54;;;;;;;9.60;4.68;;;;;;;;;;4978687;28;20487;-72
2023/01/30 05:22:20;;;;;;;8.43;4.72;;;;;;;;;;4979548;28;20030;-71
2023/01/30 05:24:46;;;;;;;8.88;4.82;;;;;;;;;;4976431;28;20549;-70
2023/01/30 05:27:13;;;;;;;9.75;5.68;;;;;;;;;;4976592;28;20044;-70
2023/01/30 05:29:39;;;;;;;7.75;4.80;;;;;;;;;;4975036;28;20030;-70
2023/01/30 05:32:05;;;;;;;7.57;4.88;;;;;;;;;;4974595;28;20034;-73
2023/01/30 05:34:31;;;;;;;8.05;4.55;;;;;;;;;;4977259;28;20057;-71
2023/01/30 05:36:57;;;;;;;7.68;4.65;;;;;;;;;;4970640;28;20230;-71
2023/01/30 05:39:23;;;;;;;7.47;4.50;;;;;;;;;;4977987;28;20038;-71
2023/01/30 05:41:50;;;;;;;7.85;4.70;;;;;;;;;;4975055;28;20026;-71
2023/01/30 05:44:16;;;;;;;9.95;5.03;;;;;;;;;;4976237;28;20023;-72
2023/01/30 05:46:42;;;;;;;6.15;4.57;;;;;;;;;;4976381;28;20095;-72
2023/01/30 05:49:08;;;;;;;5.82;4.53;;;;;;;;;;4977441;28;20501;-71
2023/01/30 05:51:34;;;;;;;6.55;4.18;;;;;;;;;;4974148;28;20036;-71
2023/01/30 05:54:00;;;;;;;7.93;4.85;;;;;;;;;;4973853;28;20259;-71
2023/01/30 05:56:27;;;;;;;7.55;4.30;;;;;;;;;;4976961;28;20034;-73
2023/01/30 05:58:54;;;;;;;4.95;3.92;;;;;;;;;;4973879;28;20045;-72
2023/01/30 06:01:20;;;;;;;7.60;4.53;;;;;;;;;;4974695;28;20037;-72
2023/01/30 06:03:47;;;;;;;7.53;4.63;;;;;;;;;;4973856;28;20038;-71
2023/01/30 06:06:13;;;;;;;7.10;4.32;;;;;;;;;;4975951;28;20054;-70
2023/01/30 06:08:39;;;;;;;7.32;4.35;;;;;;;;;;4971450;28;20146;-71
2023/01/30 06:11:07;;;;;;;6.65;4.50;;;;;;;;;;4973490;28;20149;-71
2023/01/30 06:13:33;;;;;;;6.03;4.10;;;;;;;;;;4972317;28;20065;-71
2023/01/30 06:16:00;;;;;;;6.72;4.30;;;;;;;;;;4974835;28;20470;-72
2023/01/30 06:18:26;;;;;;;6.32;4.38;;;;;;;;;;4976749;28;20038;-71
2023/01/30 06:20:53;;;;;;;7.38;4.03;;;;;;;;;;4970982;28;20493;-71
2023/01/30 06:23:20;;;;;;;8.30;4.50;;;;;;;;;;4977836;28;20044;-71
2023/01/30 06:25:47;;;;;;;7.32;4.75;;;;;;;;;;4976277;28;20038;-71
2023/01/30 06:28:14;;;;;;;6.53;4.30;;;;;;;;;;4971106;28;20038;-71
2023/01/30 06:30:41;;;;;;;7.28;4.30;;;;;;;;;;4968887;28;20033;-73
2023/01/30 06:33:07;;;;;;;8.35;4.63;;;;;;;;;;4973479;28;20041;-73
2023/01/30 06:35:33;;;;;;;10.05;4.85;;;;;;;;;;4973035;28;20022;-72
2023/01/30 06:37:59;;;;;;;8.00;4.68;;;;;;;;;;4974450;28;20084;-71
2023/01/30 06:40:26;;;;;;;8.98;4.68;;;;;;;;;;4976636;28;20030;-73
2023/01/30 06:42:52;;;;;;;7.82;5.25;;;;;;;;;;4976892;28;20077;-71
2023/01/30 06:45:18;;;;;;;9.68;5.05;;;;;;;;;;4969141;28;20027;-72
2023/01/30 06:47:49;;;;;;;6.55;4.47;;;;;;;;;;4975127;28;20022;-72
2023/01/30 06:50:16;;;;;;;9.57;4.68;;;;;;;;;;4977843;28;20034;-72
2023/01/30 06:52:43;;;;;;;7.43;4.43;;;;;;;;;;4976473;28;20749;-73
2023/01/30 06:55:10;;;;;;;6.57;4.65;;;;;;;;;;4977248;28;20038;-73
2023/01/30 06:57:36;;;;;;;9.50;5.15;;;;;;;;;;4974299;28;20034;-71
2023/01/30 07:00:06;;;;;;;6.15;4.28;;;;;;;;;;4973300;28;20022;-73
2023/01/30 07:02:34;;;;;;;9.27;5.10;;;;;;;;;;4973211;28;20034;-73
2023/01/30 07:05:01;;;;;;;7.13;4.75;;;;;;;;;;4972203;28;20057;-71
2023/01/30 07:07:27;;;;;;;8.50;4.85;;;;;;;;;;4972892;28;20057;-71
2023/01/30 07:09:54;;;;;;;10.48;5.20;;;;;;;;;;4970914;28;20042;-72
2023/01/30 07:12:20;;;;;;;7.00;4.63;;;;;;;;;;4978166;28;20027;-72
2023/01/30 07:14:46;;;;;;;10.07;5.60;;;;;;;;;;4969891;28;20023;-72
2023/01/30 07:17:13;;;;;;;11.70;5.72;;;;;;;;;;4976027;28;20092;-71
2023/01/30 07:19:39;;;;;;;10.50;5.53;;;;;;;;;;4974145;28;20648;-72
2023/01/30 07:22:05;;;;;;;10.95;5.32;;;;;;;;;;4973464;28;20372;-72
2023/01/30 07:24:32;;;;;;;9.10;5.82;;;;;;;;;;4971635;28;20486;-72
2023/01/30 07:26:58;;;;;;;9.13;5.75;;;;;;;;;;4968978;28;20529;-74
2023/01/30 07:29:24;;;;;;;7.00;4.93;;;;;;;;;;4976073;28;20077;-73
2023/01/30 07:31:50;;;;;;;7.43;4.57;;;;;;;;;;4976147;28;20033;-71
2023/01/30 07:34:17;;;;;;;6.15;4.35;;;;;;;;;;4975231;28;20054;-72
2023/01/30 07:36:43;;;;;;;6.85;4.60;;;;;;;;;;4974085;28;20372;-74
2023/01/30 07:39:09;;;;;;;6.45;4.57;;;;;;;;;;4969839;28;20698;-71
2023/01/30 07:41:35;;;;;;;9.77;4.47;;;;;;;;;;4973802;28;20029;-71
2023/01/30 07:44:02;;;;;;;6.30;4.22;;;;;;;;;;4975281;28;20042;-73
2023/01/30 07:46:33;;;;;;;10.18;4.43;;;;;;;;;;4969218;28;20797;-72
2023/01/30 07:49:03;;;;;;;6.22;4.15;;;;;;;;;;4974109;28;20027;-72
2023/01/30 07:51:29;;;;;;;6.30;4.35;;;;;;;;;;4978340;28;20496;-72
2023/01/30 07:53:55;;;;;;;6.47;4.57;;;;;;;;;;4970970;28;20126;-72
2023/01/30 07:56:21;;;;;;;5.93;4.13;;;;;;;;;;4969735;28;20030;-72
2023/01/30 07:58:47;;;;;;;14.05;5.03;;;;;;;;;;4973396;28;20030;-72
2023/01/30 08:01:14;;;;;;;9.65;4.65;;;;;;;;;;4972245;28;20025;-72
2023/01/30 08:03:40;;;;;;;5.80;3.88;;;;;;;;;;4971584;28;20042;-71
2023/01/30 08:06:06;;;;;;;5.85;4.18;;;;;;;;;;4974234;28;20042;-72
2023/01/30 08:08:33;;;;;;;7.38;4.05;;;;;;;;;;4975338;28;20053;-72
2023/01/30 08:10:59;;;;;;;6.32;4.50;;;;;;;;;;4975589;28;20088;-74
2023/01/30 08:13:25;;;;;;;5.50;3.90;;;;;;;;;;4979705;28;20029;-72
2023/01/30 08:15:51;;;;;;;6.30;4.55;;;;;;;;;;4977137;28;20030;-71
2023/01/30 08:18:17;;;;;;;9.98;5.22;;;;;;;;;;4967190;28;20031;-72
2023/01/30 08:20:43;;;;;;;9.55;5.18;;;;;;;;;;4978462;28;20335;-73
2023/01/30 08:23:10;;;;;;;5.93;4.50;;;;;;;;;;4979706;28;20096;-73
2023/01/30 08:25:36;;;;;;;8.40;4.68;;;;;;;;;;4976657;28;20064;-72
2023/01/30 08:28:03;;;;;;;6.93;5.10;;;;;;;;;;4972143;28;20688;-72
2023/01/30 08:30:29;;;;;;;7.20;4.80;;;;;;;;;;4977925;28;20045;-71
2023/01/30 08:32:56;;;;;;;10.00;5.28;;;;;;;;;;4974586;28;20023;-72
2023/01/30 08:35:22;;;;;;;8.10;4.47;;;;;;;;;;4973271;28;20035;-71
2023/01/30 08:37:48;;;;;;;5.35;3.78;;;;;;;;;;4976730;28;20076;-73
2023/01/30 08:40:14;;;;;;;7.80;4.13;;;;;;;;;;4972724;28;20029;-73
2023/01/30 08:42:44;;;;;;;5.45;4.30;;;;;;;;;;4975892;28;20026;-72
2023/01/30 08:45:10;;;;;;;6.25;4.55;;;;;;;;;;4972859;28;20039;-72
2023/01/30 08:47:36;;;;;;;7.65;4.85;;;;;;;;;;4977639;28;20034;-72
2023/01/30 08:50:03;;;;;;;9.65;5.63;;;;;;;;;;4975772;28;20072;-72
2023/01/30 08:52:29;;;;;;;7.80;5.40;;;;;;;;;;4974361;28;20023;-73
2023/01/30 08:54:55;;;;;;;9.00;5.70;;;;;;;;;;4975269;28;20033;-73
2023/01/30 08:57:22;;;;;;;11.02;5.60;;;;;;;;;;4977934;28;20484;-73
2023/01/30 08:59:50;;;;;;;6.43;4.78;;;;;;;;;;4977251;28;20334;-72
2023/01/30 09:02:16;;;;;;;7.15;4.68;;;;;;;;;;4977096;28;20033;-74
2023/01/30 09:04:42;;;;;;;12.45;5.38;;;;;;;;;;4976180;28;20030;-71
2023/01/30 09:07:09;;;;;;;7.30;4.90;;;;;;;;;;4976274;28;20529;-73
2023/01/30 09:09:35;;;;;;;7.70;5.13;;;;;;;;;;4977491;28;20030;-72
2023/01/30 09:12:01;;;;;;;9.07;5.35;;;;;;;;;;4974904;28;20117;-72
2023/01/30 09:14:28;;;;;;;7.45;4.93;;;;;;;;;;4974544;28;20029;-72
2023/01/30 09:16:54;;;;;;;6.78;4.70;;;;;;;;;;4975206;28;20030;-72
2023/01/30 09:19:24;;;;;;;6.97;4.43;;;;;;;;;;4977675;28;20033;-72
2023/01/30 09:21:51;;;;;;;5.72;3.88;;;;;;;;;;4972470;28;20056;-75
2023/01/30 09:24:18;;;;;;;6.40;4.28;;;;;;;;;;4975535;28;20333;-76
2023/01/30 09:26:44;;;;;;;4.35;3.58;;;;;;;;;;4975540;28;20088;-73
2023/01/30 09:29:13;;;;;;;8.80;4.78;;;;;;;;;;4974096;28;20085;-74
2023/01/30 09:31:40;;;;;;;7.30;4.35;;;;;;;;;;4977245;28;20110;-74
2023/01/30 09:34:06;;;;;;;5.13;3.63;;;;;;;;;;4972181;28;20034;-74
2023/01/30 09:36:32;;;;;;;5.63;3.95;;;;;;;;;;4974902;28;20367;-76
2023/01/30 09:38:59;;;;;;;5.93;4.18;;;;;;;;;;4973843;28;20105;-74
2023/01/30 09:41:43;;;;;;;5.47;4.03;;;;;;;;;;4976119;28;20420;-74
2023/01/30 09:44:31;;;;;;;5.40;4.25;;;;;;;;;;4973636;28;20381;-74
2023/01/30 09:47:13;;;;;;;6.10;4.32;;;;;;;;;;4976409;28;20045;-74
2023/01/30 09:49:42;;;;;;;5.47;3.45;;;;;;;;;;4975083;28;20671;-76
2023/01/30 09:52:11;;;;;;;6.40;4.50;;;;;;;;;;4973803;28;20037;-74
2023/01/30 09:54:39;;;;;;;5.57;4.28;;;;;;;;;;4974665;28;20069;-74
2023/01/30 09:57:05;;;;;;;5.43;3.92;;;;;;;;;;4973357;28;20068;-74
2023/01/30 09:59:35;;;;;;;5.72;4.03;;;;;;;;;;4972420;28;20064;-74
2023/01/30 10:02:22;;;;;;;6.20;3.85;;;;;;;;;;4974962;28;20027;-74
2023/01/30 10:04:49;;;;;;;5.65;3.55;;;;;;;;;;4972077;28;20038;-74
2023/01/30 10:07:15;;;;;;;6.32;3.90;;;;;;;;;;4975186;28;20026;-74
2023/01/30 10:09:50;;;;;;;7.07;3.60;;;;;;;;;;4975161;28;20097;-74
2023/01/30 10:12:26;;;;;;;10.25;4.05;;;;;;;;;;4968837;28;20037;-74
2023/01/30 10:14:52;;;;;;;5.72;3.60;;;;;;;;;;4975049;28;20507;-74
2023/01/30 10:17:37;;;;;;;6.40;3.67;;;;;;;;;;4967961;28;20038;-74
2023/01/30 10:20:03;;;;;;;4.10;3.13;;;;;;;;;;4973634;28;20030;-74
2023/01/30 10:22:29;;;;;;;6.20;3.83;;;;;;;;;;4975088;28;20376;-74
2023/01/30 10:24:58;;;;;;;4.32;3.33;;;;;;;;;;4973740;28;20478;-74
2023/01/30 10:27:25;;;;;;;3.65;2.58;;;;;;;;;;4971717;28;20033;-73
2023/01/30 10:29:55;;;;;;;4.60;3.00;;;;;;;;;;4975636;28;20034;-74
2023/01/30 10:32:48;;;;;;;5.03;3.15;;;;;;;;;;4977011;28;20399;-74
2023/01/30 10:35:22;;;;;;;3.75;2.90;;;;;;;;;;4968543;28;20116;-74
2023/01/30 10:37:57;;;;;;;4.63;2.95;;;;;;;;;;4969990;28;20065;-74
2023/01/30 10:40:29;;;;;;;3.75;2.67;;;;;;;;;;4978128;28;20038;-74
2023/01/30 10:43:00;;;;;;;3.38;2.50;;;;;;;;;;4973847;28;20635;-74
2023/01/30 10:45:30;;;;;;;4.10;2.97;;;;;;;;;;4971794;28;20038;-74
2023/01/30 10:48:14;;;;;;;5.22;2.88;;;;;;;;;;4973213;28;20046;-74
2023/01/30 10:50:56;;;;;;;3.72;2.55;;;;;;;;;;4970176;28;20034;-74
2023/01/30 10:53:28;;;;;;;5.07;2.78;;;;;;;;;;4971328;28;20101;-74
2023/01/30 10:56:13;;;;;;;4.47;2.60;;;;;;;;;;4977024;28;20053;-73
2023/01/30 10:58:43;;;;;;;4.40;2.97;;;;;;;;;;4968958;28;20027;-74
2023/01/30 11:01:16;;;;;;;4.68;3.25;;;;;;;;;;4971197;28;20499;-74
2023/01/30 11:03:51;;;;;;;4.50;3.05;;;;;;;;;;4971584;28;20073;-74
2023/01/30 11:06:19;;;;;;;4.68;3.00;;;;;;;;;;4969972;28;20046;-74
2023/01/30 11:08:45;;;;;;;4.55;2.75;;;;;;;;;;4976773;28;20085;-74
2023/01/30 11:11:20;;;;;;;5.07;3.03;;;;;;;;;;4974071;28;20026;-74
2023/01/30 11:13:46;;;;;;;3.92;2.80;;;;;;;;;;4974502;28;20396;-74
2023/01/30 11:16:12;;;;;;;4.53;2.88;;;;;;;;;;4971729;28;20023;-74
2023/01/30 11:18:49;;;;;;;4.47;2.67;;;;;;;;;;4973828;28;20023;-74
2023/01/30 11:21:23;;;;;;;3.15;2.55;;;;;;;;;;4973312;28;20022;-74
2023/01/30 11:23:50;;;;;;;4.82;2.47;;;;;;;;;;4973915;28;20411;-74
2023/01/30 11:26:30;;;;;;;4.13;2.78;;;;;;;;;;4974422;28;20025;-74
2023/01/30 11:28:56;;;;;;;3.83;2.45;;;;;;;;;;4973152;28;20026;-74
2023/01/30 11:31:26;;;;;;;4.88;2.55;;;;;;;;;;4970556;28;20114;-74
2023/01/30 11:34:03;;;;;;;3.25;2.20;;;;;;;;;;4969631;28;20061;-74
2023/01/30 11:36:34;;;;;;;2.67;2.25;;;;;;;;;;4972619;28;20640;-73
2023/01/30 11:39:03;;;;;;;4.28;2.30;;;;;;;;;;4975958;28;20030;-74
2023/01/30 11:41:30;;;;;;;4.85;2.80;;;;;;;;;;4974252;28;20022;-74
2023/01/30 11:44:00;;;;;;;5.55;2.58;;;;;;;;;;4978153;28;20031;-75
2023/01/30 11:46:29;;;;;;;4.55;3.08;;;;;;;;;;4969653;28;20023;-73
2023/01/30 11:48:59;;;;;;;6.15;3.40;;;;;;;;;;4977138;28;20130;-74
2023/01/30 11:51:26;;;;;;;4.72;2.92;;;;;;;;;;4977916;28;20079;-74
2023/01/30 11:53:57;;;;;;;5.97;3.10;;;;;;;;;;4980999;28;20539;-74
2023/01/30 11:56:26;;;;;;;5.45;3.10;;;;;;;;;;4972833;28;20157;-74
2023/01/30 11:59:12;;;;;;;4.60;2.95;;;;;;;;;;4974388;28;20822;-74
2023/01/30 12:01:39;;;;;;;6.40;3.22;;;;;;;;;;4965927;28;20030;-74
2023/01/30 12:04:06;;;;;;;7.22;3.35;;;;;;;;;;4978123;28;20034;-74
2023/01/30 12:06:34;;;;;;;4.50;2.90;;;;;;;;;;4975458;28;20408;-74
2023/01/30 12:09:01;;;;;;;4.68;2.95;;;;;;;;;;4977094;28;20138;-74
2023/01/30 12:11:31;;;;;;;4.57;3.20;;;;;;;;;;4972823;28;20034;-73
2023/01/30 12:14:16;;;;;;;6.72;3.28;;;;;;;;;;4976707;28;20034;-75
2023/01/30 12:16:42;;;;;;;4.53;3.10;;;;;;;;;;4972880;28;20034;-77
2023/01/30 12:19:14;;;;;;;6.05;3.25;;;;;;;;;;4981182;28;21106;-78
2023/01/30 12:21:46;;;;;;;7.43;2.90;;;;;;;;;;4973856;28;20030;-78
2023/01/30 12:24:20;;;;;;;6.88;3.53;;;;;;;;;;4977150;28;20533;-78
2023/01/30 12:26:56;;;;;;;7.45;3.15;;;;;;;;;;4974140;28;20118;-78
2023/01/30 12:29:52;;;;;;;5.00;3.22;;;;;;;;;;4978466;28;20025;-78
2023/01/30 12:32:19;;;;;;;4.75;3.03;;;;;;;;;;4925315;28;20063;-77
2023/01/30 12:34:47;;;;;;;3.70;2.75;;;;;;;;;;4977701;28;20036;-77
2023/01/30 12:37:27;;;;;;;5.47;3.33;;;;;;;;;;4975062;28;20032;-77
2023/01/30 12:40:12;;;;;;;4.22;2.85;;;;;;;;;;4973923;28;20076;-76
2023/01/30 12:42:56;;;;;;;4.18;3.05;;;;;;;;;;4975316;28;20081;-78
2023/01/30 12:45:55;;;;;;;3.38;2.90;;;;;;;;;;4976380;28;20418;-77
2023/01/30 12:48:21;;;;;;;5.38;3.03;;;;;;;;;;4955885;28;20748;-77
2023/01/30 12:50:50;;;;;;;7.85;3.92;;;;;;;;;;4974986;28;20025;-77
2023/01/30 12:53:26;;;;;;;4.28;2.97;;;;;;;;;;4976328;28;20869;-77
2023/01/30 12:56:09;;;;;;;4.93;3.13;;;;;;;;;;4976667;28;20487;-75
2023/01/30 12:58:51;;;;;;;5.88;3.40;;;;;;;;;;4976853;28;20022;-77
2023/01/30 13:01:21;;;;;;;5.50;3.38;;;;;;;;;;4971570;28;20023;-77
2023/01/30 13:03:58;;;;;;;4.53;2.63;;;;;;;;;;4974350;28;20085;-77
2023/01/30 13:06:24;;;;;;;4.82;3.05;;;;;;;;;;4977893;28;20111;-77
2023/01/30 13:09:00;;;;;;;4.40;3.08;;;;;;;;;;4971808;28;20029;-77
2023/01/30 13:11:27;;;;;;;5.05;3.25;;;;;;;;;;4967290;28;20089;-78
2023/01/30 13:14:03;;;;;;;4.20;2.88;;;;;;;;;;4978001;28;20184;-76
2023/01/30 13:16:35;;;;;;;3.58;2.65;;;;;;;;;;4976841;28;20026;-76
2023/01/30 13:19:01;;;;;;;4.68;2.65;;;;;;;;;;4972974;28;20563;-76
2023/01/30 13:21:39;;;;;;;3.78;2.80;;;;;;;;;;4977861;28;20100;-76
2023/01/30 13:24:25;;;;;;;4.63;3.03;;;;;;;;;;4970203;28;20088;-76
2023/01/30 13:26:52;;;;;;;10.75;3.50;;;;;;;;;;4972247;28;20214;-76
2023/01/30 13:29:31;;;;;;;6.43;2.90;;;;;;;;;;4976042;28;20033;-78
2023/01/30 13:32:00;;;;;;;3.53;2.72;;;;;;;;;;4976294;28;20044;-76
2023/01/30 13:34:30;;;;;;;5.88;3.03;;;;;;;;;;4977738;28;20491;-75
2023/01/30 13:36:58;;;;;;;3.28;2.63;;;;;;;;;;4972604;28;20033;-76
2023/01/30 13:39:30;;;;;;;4.63;2.70;;;;;;;;;;4973030;28;20974;-77
2023/01/30 13:41:56;;;;;;;;;;;;;;;;;;4976236;28;20104;-76
2023/01/30 13:44:30;;;;;;;3.80;2.42;;;;;;;;;;4972717;28;19957;-75
2023/01/30 13:46:57;;;;;;;6.57;3.47;;;;;;;;;;4977196;28;20030;-75
2023/01/30 13:49:42;;;;;;;5.88;3.13;;;;;;;;;;4975852;28;20034;-76
2023/01/30 13:52:15;;;;;;;5.78;3.13;;;;;;;;;;4969971;28;20038;-76
2023/01/30 13:55:04;;;;;;;5.80;3.42;;;;;;;;;;4975064;28;20030;-76
2023/01/30 13:57:49;;;;;;;6.60;3.67;;;;;;;;;;4963610;28;20045;-75
2023/01/30 14:00:21;;;;;;;14.25;3.60;;;;;;;;;;4975673;28;20026;-76
2023/01/30 14:03:20;;;;;;;4.22;2.80;;;;;;;;;;4972241;28;20026;-74
2023/01/30 14:05:59;;;;;;;6.90;2.90;;;;;;;;;;4945992;28;20076;-75
2023/01/30 14:08:44;;;;;;;4.25;2.65;;;;;;;;;;4973376;28;20100;-75
2023/01/30 14:11:42;;;;;;;5.82;2.95;;;;;;;;;;4973779;28;20038;-78
2023/01/30 14:14:17;;;;;;;4.00;2.92;;;;;;;;;;4930389;28;20047;-77
2023/01/30 14:16:45;;;;;;;5.78;2.90;;;;;;;;;;4974043;28;20030;-76
2023/01/30 14:19:30;;;;;;;10.02;3.22;;;;;;;;;;4973503;28;20026;-76
2023/01/30 14:21:57;;;;;;;11.48;3.50;;;;;;;;;;4973086;28;20419;-76
2023/01/30 14:24:24;;;;;;;5.10;2.85;;;;;;;;;;4976668;28;20040;-76
2023/01/30 14:26:50;;;;;;;7.10;3.10;;;;;;;;;;4978750;28;20022;-77
2023/01/30 14:29:51;;;;;;;4.38;2.95;;;;;;;;;;4971106;28;20027;-76
2023/01/30 14:32:34;;;;;;;4.85;3.15;;;;;;;;;;4916489;29;20039;-76
2023/01/30 14:35:00;;;;;;;4.63;2.35;;;;;;;;;;4965515;28;20118;-76
2023/01/30 14:37:29;;;;;;;4.55;3.15;;;;;;;;;;4977454;28;20050;-76
2023/01/30 14:39:56;;;;;;;7.00;2.88;;;;;;;;;;4972105;28;20177;-76
2023/01/30 14:42:23;;;;;;;5.28;3.20;;;;;;;;;;4973994;28;20073;-76
2023/01/30 14:44:55;;;;;;;5.32;3.35;;;;;;;;;;4970096;28;20030;-76
2023/01/30 14:47:22;;;;;;;5.13;2.80;;;;;;;;;;4977637;28;20651;-75
2023/01/30 14:49:48;;;;;;;4.55;2.78;;;;;;;;;;4973237;28;20598;-76
2023/01/30 14:52:31;;;;;;;7.05;3.10;;;;;;;;;;4969454;28;20030;-76
2023/01/30 14:54:57;;;;;;;4.88;2.97;;;;;;;;;;4973783;28;20038;-76
2023/01/30 14:57:31;;;;;;;5.25;3.53;;;;;;;;;;4975656;28;20145;-75
2023/01/30 15:00:17;;;;;;;5.05;3.13;;;;;;;;;;4971739;28;20042;-76
2023/01/30 15:02:48;;;;;;;5.13;2.85;;;;;;;;;;4970118;28;20033;-76
2023/01/30 15:05:17;;;;;;;6.60;4.40;;;;;;;;;;4972449;28;20145;-77